Current Weather

Waterbury-Oxford

Oxford, Connecticut (KOXC)

Report from: Wednesday, May 29, 2024 6:56 PM EDT
Current time: Wednesday, May 29, 2024 7:47 PM EDT

Nearby weather – Weather history – Daily summaries
Weather forecast

Temperature21.1°C (70.0°F)
Dew point11.1°C (52.0°F)
Winds 4 kts (2.1 m/s, 4.6 mph) West-Northwest (290°)
Visibility10 mi. (16.1 km)
Clouds Scattered clouds 5,500 ft. (1,676 m)
Altimeter29.90 in.Hg (1013 mB)
Relative humidity53 %
Density altitude887 ft. (270 m)
Sea-level pressure101.4 kPa (1014 mB, 29.93 in.Hg)
Remarks Automated weather observing station with precipitation discriminator
Flight conditions Visual Meteorological Conditions
Raw dataKOXC 292256Z 29004KT 10SM SCT055 21/11 A2990 RMK AO2 SLP136 T02110111
An error has occurred. This application may no longer respond until reloaded. Reload 🗙